Time;durP1;ratioP1;P1;durP2;ratioP2;P2;SDS_P1;SDS_P2;PMS_P1;PMS_P2;Temp;Humidity;BMP_temperature;BMP_pressure;BME280_temperature;BME280_humidity;BME280_pressure;Samples;Min_cycle;Max_cycle;Signal;HPM_P1;HPM_P2
2024/04/17 00:02:12;;;;;;;5.35;4.85;;;;;;;;;;5491446;26;20002;-75
2024/04/17 00:04:38;;;;;;;5.18;4.68;;;;;;;;;;5498646;25;20072;-77
2024/04/17 00:07:06;;;;;;;5.20;4.55;;;;;;;;;;5506963;26;20048;-77
2024/04/17 00:09:32;;;;;;;8.07;4.65;;;;;;;;;;5498221;26;20032;-78
2024/04/17 00:11:58;;;;;;;6.68;5.22;;;;;;;;;;5526096;26;20112;-76
2024/04/17 00:14:24;;;;;;;5.93;5.25;;;;;;;;;;5532024;26;20363;-77
2024/04/17 00:16:50;;;;;;;5.35;4.78;;;;;;;;;;5520952;25;20002;-76
2024/04/17 00:19:16;;;;;;;4.63;4.22;;;;;;;;;;5494357;26;20070;-76
2024/04/17 00:21:42;;;;;;;5.20;4.70;;;;;;;;;;5497187;26;20006;-77
2024/04/17 00:24:08;;;;;;;8.85;6.07;;;;;;;;;;5492940;26;20521;-77
2024/04/17 00:26:34;;;;;;;4.88;4.38;;;;;;;;;;5493910;26;20023;-78
2024/04/17 00:29:00;;;;;;;6.50;4.72;;;;;;;;;;5494803;26;20328;-78
2024/04/17 00:31:26;;;;;;;5.70;4.45;;;;;;;;;;5491259;26;20001;-77
2024/04/17 00:33:52;;;;;;;7.28;5.15;;;;;;;;;;5490091;26;19990;-77
2024/04/17 00:36:18;;;;;;;5.85;5.25;;;;;;;;;;5490406;26;20065;-77
2024/04/17 00:38:44;;;;;;;8.25;5.63;;;;;;;;;;5503783;26;19998;-78
2024/04/17 00:41:10;;;;;;;6.05;5.38;;;;;;;;;;5516758;26;19997;-78
2024/04/17 00:43:36;;;;;;;6.35;5.63;;;;;;;;;;5491957;26;20452;-77
2024/04/17 00:46:03;;;;;;;6.43;5.57;;;;;;;;;;5492937;26;20495;-77
2024/04/17 00:48:29;;;;;;;6.20;5.57;;;;;;;;;;5492802;26;20339;-76
2024/04/17 00:50:57;;;;;;;7.15;6.10;;;;;;;;;;5496022;26;20336;-78
2024/04/17 00:53:25;;;;;;;6.78;6.05;;;;;;;;;;5503547;26;20002;-77
2024/04/17 00:55:52;;;;;;;5.95;5.35;;;;;;;;;;5496570;26;20006;-76
2024/04/17 00:58:18;;;;;;;7.32;6.40;;;;;;;;;;5533093;25;20005;-78
2024/04/17 01:00:44;;;;;;;6.32;5.60;;;;;;;;;;5530327;25;20001;-76
2024/04/17 01:03:10;;;;;;;6.75;5.47;;;;;;;;;;5526070;26;20396;-76
2024/04/17 01:05:37;;;;;;;6.68;5.72;;;;;;;;;;5529335;25;20001;-77
2024/04/17 01:08:06;;;;;;;7.13;5.80;;;;;;;;;;5526495;26;19997;-76
2024/04/17 01:10:32;;;;;;;6.38;5.72;;;;;;;;;;5513719;26;20014;-77
2024/04/17 01:12:58;;;;;;;7.10;6.03;;;;;;;;;;5488897;26;19995;-77
2024/04/17 01:15:24;;;;;;;6.65;6.00;;;;;;;;;;5490619;26;20002;-77
2024/04/17 01:17:51;;;;;;;6.97;6.13;;;;;;;;;;5494032;26;20448;-75
2024/04/17 01:20:17;;;;;;;6.47;5.82;;;;;;;;;;5497257;26;20317;-77
2024/04/17 01:22:43;;;;;;;10.07;6.72;;;;;;;;;;5525731;26;19994;-76
2024/04/17 01:25:09;;;;;;;7.22;6.35;;;;;;;;;;5524983;25;20393;-77
2024/04/17 01:27:35;;;;;;;7.30;6.57;;;;;;;;;;5498391;26;20001;-77
2024/04/17 01:30:01;;;;;;;8.35;7.10;;;;;;;;;;5499287;26;20008;-77
2024/04/17 01:32:27;;;;;;;10.00;6.90;;;;;;;;;;5494347;26;19994;-76
2024/04/17 01:34:53;;;;;;;8.02;6.95;;;;;;;;;;5492859;26;20016;-77
2024/04/17 01:37:19;;;;;;;9.05;7.30;;;;;;;;;;5517085;26;19993;-77
2024/04/17 01:39:45;;;;;;;7.85;6.70;;;;;;;;;;5531905;25;20000;-75
2024/04/17 01:42:11;;;;;;;9.25;7.45;;;;;;;;;;5529640;25;20013;-77
2024/04/17 01:44:37;;;;;;;9.73;8.35;;;;;;;;;;5507541;26;20043;-76
2024/04/17 01:47:03;;;;;;;11.32;8.93;;;;;;;;;;5493477;26;20018;-76
2024/04/17 01:49:29;;;;;;;11.88;8.48;;;;;;;;;;5495196;26;20062;-77
2024/04/17 01:51:55;;;;;;;10.07;7.88;;;;;;;;;;5496298;26;19998;-77
2024/04/17 01:54:21;;;;;;;10.65;9.07;;;;;;;;;;5504476;25;19993;-76
2024/04/17 01:56:51;;;;;;;10.27;8.68;;;;;;;;;;5533035;26;19986;-75
2024/04/17 01:59:17;;;;;;;9.70;8.48;;;;;;;;;;5495654;26;20364;-76
2024/04/17 02:01:43;;;;;;;10.98;8.00;;;;;;;;;;5505335;26;19998;-78
2024/04/17 02:04:10;;;;;;;9.32;7.60;;;;;;;;;;5531708;26;19993;-75
2024/04/17 02:06:36;;;;;;;11.07;8.05;;;;;;;;;;5535359;26;19997;-76
2024/04/17 02:09:02;;;;;;;8.93;7.00;;;;;;;;;;5516519;26;19998;-76
2024/04/17 02:11:28;;;;;;;8.23;6.97;;;;;;;;;;5499545;26;20452;-77
2024/04/17 02:13:54;;;;;;;11.07;7.57;;;;;;;;;;5529597;25;19989;-76
2024/04/17 02:16:21;;;;;;;8.10;6.90;;;;;;;;;;5507463;26;19994;-78
2024/04/17 02:18:47;;;;;;;9.48;7.82;;;;;;;;;;5512260;26;20001;-78
2024/04/17 02:21:13;;;;;;;9.30;7.07;;;;;;;;;;5505289;25;20034;-77
2024/04/17 02:23:39;;;;;;;7.35;6.65;;;;;;;;;;5498441;26;19998;-77
2024/04/17 02:26:05;;;;;;;9.40;6.82;;;;;;;;;;5498140;26;20332;-77
2024/04/17 02:28:31;;;;;;;10.10;7.20;;;;;;;;;;5494594;26;19994;-76
2024/04/17 02:30:57;;;;;;;10.85;7.22;;;;;;;;;;5500150;26;20332;-77
2024/04/17 02:33:23;;;;;;;9.32;7.20;;;;;;;;;;5492589;26;20005;-75
2024/04/17 02:35:49;;;;;;;8.73;7.30;;;;;;;;;;5522564;25;19994;-78
2024/04/17 02:38:16;;;;;;;11.98;6.72;;;;;;;;;;5494658;26;20103;-77
2024/04/17 02:40:42;;;;;;;8.57;7.75;;;;;;;;;;5496409;26;20046;-76
2024/04/17 02:43:08;;;;;;;8.68;7.20;;;;;;;;;;5529648;25;20324;-76
2024/04/17 02:45:35;;;;;;;8.50;6.60;;;;;;;;;;5528827;26;20037;-77
2024/04/17 02:48:01;;;;;;;7.35;6.35;;;;;;;;;;5513907;26;20066;-77
2024/04/17 02:50:27;;;;;;;8.60;6.70;;;;;;;;;;5491137;26;19994;-77
2024/04/17 02:52:53;;;;;;;8.65;6.55;;;;;;;;;;5492481;26;20397;-76
2024/04/17 02:55:19;;;;;;;8.25;6.10;;;;;;;;;;5510400;26;19993;-76
2024/04/17 02:57:45;;;;;;;7.10;6.40;;;;;;;;;;5528944;25;20040;-76
2024/04/17 03:00:11;;;;;;;7.32;6.50;;;;;;;;;;5528187;26;20443;-77
2024/04/17 03:02:37;;;;;;;7.90;6.57;;;;;;;;;;5507682;25;19998;-77
2024/04/17 03:05:03;;;;;;;10.15;6.25;;;;;;;;;;5499912;25;20138;-77
2024/04/17 03:07:29;;;;;;;7.55;6.50;;;;;;;;;;5530151;26;20001;-76
2024/04/17 03:09:55;;;;;;;10.15;6.00;;;;;;;;;;5530706;25;19997;-77
2024/04/17 03:12:22;;;;;;;9.02;6.05;;;;;;;;;;5515818;26;20035;-76
2024/04/17 03:14:48;;;;;;;8.70;6.18;;;;;;;;;;5522558;26;20023;-78
2024/04/17 03:17:14;;;;;;;10.02;7.47;;;;;;;;;;5501399;26;20445;-77
2024/04/17 03:19:40;;;;;;;8.32;6.13;;;;;;;;;;5508302;25;20395;-74
2024/04/17 03:22:07;;;;;;;7.40;5.80;;;;;;;;;;5529556;26;19989;-76
2024/04/17 03:24:33;;;;;;;8.80;5.68;;;;;;;;;;5529146;26;20068;-77
2024/04/17 03:26:59;;;;;;;8.93;6.45;;;;;;;;;;5517133;26;20333;-77
2024/04/17 03:29:25;;;;;;;9.02;5.55;;;;;;;;;;5493668;26;20333;-77
2024/04/17 03:31:51;;;;;;;9.23;5.82;;;;;;;;;;5492612;26;20022;-76
2024/04/17 03:34:17;;;;;;;8.63;5.82;;;;;;;;;;5509820;25;20512;-78
2024/04/17 03:36:43;;;;;;;10.30;6.70;;;;;;;;;;5528115;26;20012;-78
2024/04/17 03:39:09;;;;;;;7.95;6.25;;;;;;;;;;5494429;26;20445;-78
2024/04/17 03:41:35;;;;;;;10.18;5.72;;;;;;;;;;5496072;26;20001;-78
2024/04/17 03:44:01;;;;;;;7.32;6.15;;;;;;;;;;5492411;26;20040;-76
2024/04/17 03:46:27;;;;;;;9.63;6.68;;;;;;;;;;5528311;25;20012;-78
2024/04/17 03:48:53;;;;;;;8.15;6.05;;;;;;;;;;5508770;26;20012;-76
2024/04/17 03:51:19;;;;;;;8.50;5.47;;;;;;;;;;5499113;26;20019;-76
2024/04/17 03:53:45;;;;;;;8.45;6.35;;;;;;;;;;5531455;25;19985;-77
2024/04/17 03:56:11;;;;;;;8.50;6.38;;;;;;;;;;5505527;26;20047;-75
2024/04/17 03:58:37;;;;;;;8.95;5.70;;;;;;;;;;5488612;26;19998;-76
2024/04/17 04:01:04;;;;;;;8.95;5.72;;;;;;;;;;5519764;26;20076;-75
2024/04/17 04:03:30;;;;;;;7.97;5.70;;;;;;;;;;5493719;26;20000;-76
2024/04/17 04:05:56;;;;;;;7.43;5.72;;;;;;;;;;5515825;25;20005;-74
2024/04/17 04:08:22;;;;;;;7.28;5.95;;;;;;;;;;5528844;26;20459;-74
2024/04/17 04:10:48;;;;;;;7.88;5.15;;;;;;;;;;5528531;26;20026;-75
2024/04/17 04:13:14;;;;;;;10.70;5.55;;;;;;;;;;5491725;26;20445;-76
2024/04/17 04:15:40;;;;;;;7.30;5.03;;;;;;;;;;5493933;26;19990;-79
2024/04/17 04:18:06;;;;;;;8.57;5.28;;;;;;;;;;5504565;25;19997;-80
2024/04/17 04:20:32;;;;;;;11.20;4.97;;;;;;;;;;5533337;25;19997;-77
2024/04/17 04:22:58;;;;;;;4.85;4.05;;;;;;;;;;5530446;25;19997;-77
2024/04/17 04:25:24;;;;;;;8.98;5.75;;;;;;;;;;5532901;26;19993;-78
2024/04/17 04:27:50;;;;;;;8.40;4.65;;;;;;;;;;5532165;25;20048;-75
2024/04/17 04:30:17;;;;;;;8.13;5.28;;;;;;;;;;5531243;25;20023;-79
2024/04/17 04:32:43;;;;;;;8.82;5.85;;;;;;;;;;5531439;26;20006;-78
2024/04/17 04:35:09;;;;;;;6.97;5.50;;;;;;;;;;5534735;26;19996;-78
2024/04/17 04:37:35;;;;;;;8.13;4.55;;;;;;;;;;5537178;26;19997;-78
2024/04/17 04:40:01;;;;;;;6.18;4.50;;;;;;;;;;5538684;25;20001;-77
2024/04/17 04:42:27;;;;;;;8.85;4.07;;;;;;;;;;5539425;26;19993;-77
2024/04/17 04:44:53;;;;;;;5.47;3.95;;;;;;;;;;5525668;21;20012;-75
2024/04/17 04:47:19;;;;;;;8.52;4.05;;;;;;;;;;5408529;26;20010;-75
2024/04/17 04:49:45;;;;;;;7.82;4.13;;;;;;;;;;5412648;26;20385;-75
2024/04/17 04:52:11;;;;;;;6.88;3.80;;;;;;;;;;5414974;26;20007;-75
2024/04/17 04:54:37;;;;;;;6.03;3.80;;;;;;;;;;5418034;26;20007;-76
2024/04/17 04:57:04;;;;;;;9.85;4.80;;;;;;;;;;5410003;26;20779;-75
2024/04/17 04:59:30;;;;;;;11.60;3.70;;;;;;;;;;5402954;26;20034;-75
2024/04/17 05:01:56;;;;;;;7.85;4.65;;;;;;;;;;5426086;26;20371;-75
2024/04/17 05:04:22;;;;;;;6.18;3.50;;;;;;;;;;5435230;26;20521;-75
2024/04/17 05:06:49;;;;;;;8.50;4.50;;;;;;;;;;5434112;26;20070;-78
2024/04/17 05:09:15;;;;;;;8.57;3.85;;;;;;;;;;5435370;26;20011;-76
2024/04/17 05:11:41;;;;;;;12.07;4.07;;;;;;;;;;5421582;26;20007;-77
2024/04/17 05:14:07;;;;;;;7.65;4.28;;;;;;;;;;5427894;26;20022;-73
2024/04/17 05:16:33;;;;;;;11.57;5.57;;;;;;;;;;5423256;26;20096;-72
2024/04/17 05:18:59;;;;;;;5.53;2.65;;;;;;;;;;5436713;26;20052;-80
2024/04/17 05:21:25;;;;;;;9.45;3.58;;;;;;;;;;5434181;26;20014;-76
2024/04/17 05:23:51;;;;;;;4.47;3.35;;;;;;;;;;5416710;26;19999;-76
2024/04/17 05:26:17;;;;;;;6.93;3.45;;;;;;;;;;5416790;26;19995;-76
2024/04/17 05:28:43;;;;;;;8.18;3.42;;;;;;;;;;5414632;26;20119;-76
2024/04/17 05:31:09;;;;;;;4.88;3.13;;;;;;;;;;5426629;26;20342;-76
2024/04/17 05:33:35;;;;;;;5.18;2.75;;;;;;;;;;5450049;26;20002;-73
2024/04/17 05:36:01;;;;;;;8.52;3.03;;;;;;;;;;5416370;26;20006;-75
2024/04/17 05:38:27;;;;;;;9.10;2.88;;;;;;;;;;5415977;26;20446;-73
2024/04/17 05:40:53;;;;;;;44.08;8.25;;;;;;;;;;5417718;26;20014;-73
2024/04/17 05:43:19;;;;;;;7.18;3.35;;;;;;;;;;5449858;26;20010;-73
2024/04/17 05:45:45;;;;;;;6.90;3.13;;;;;;;;;;5421178;26;20578;-77
2024/04/17 05:48:11;;;;;;;6.50;3.38;;;;;;;;;;5404276;26;20003;-79
2024/04/17 05:50:43;;;;;;;9.05;3.53;;;;;;;;;;5423565;26;20070;-78
2024/04/17 05:53:09;;;;;;;8.20;3.13;;;;;;;;;;5423002;26;19995;-77
2024/04/17 05:55:38;;;;;;;8.82;3.13;;;;;;;;;;5427472;26;20432;-79
2024/04/17 05:58:05;;;;;;;7.85;3.20;;;;;;;;;;5420917;26;20105;-77
2024/04/17 06:00:31;;;;;;;7.95;3.17;;;;;;;;;;5416606;26;19996;-73
2024/04/17 06:02:57;;;;;;;12.00;4.40;;;;;;;;;;5415259;26;20077;-76
2024/04/17 06:05:23;;;;;;;7.22;2.97;;;;;;;;;;5414620;26;20124;-76
2024/04/17 06:07:49;;;;;;;7.18;2.45;;;;;;;;;;5417268;26;20010;-77
2024/04/17 06:10:15;;;;;;;5.97;2.88;;;;;;;;;;5416531;26;20008;-75
2024/04/17 06:12:41;;;;;;;9.00;2.97;;;;;;;;;;5417019;26;19996;-74
2024/04/17 06:15:07;;;;;;;7.88;4.45;;;;;;;;;;5414360;26;20009;-76
2024/04/17 06:17:33;;;;;;;6.53;2.70;;;;;;;;;;5417106;26;20010;-78
2024/04/17 06:19:59;;;;;;;7.82;2.90;;;;;;;;;;5414821;26;20000;-76
2024/04/17 06:22:25;;;;;;;7.72;2.85;;;;;;;;;;5417222;26;20069;-77
2024/04/17 06:24:54;;;;;;;10.52;2.95;;;;;;;;;;5413206;26;20315;-77
2024/04/17 06:27:20;;;;;;;11.30;3.70;;;;;;;;;;5416441;26;20003;-77
2024/04/17 06:29:46;;;;;;;6.90;3.05;;;;;;;;;;5416739;26;20014;-77
2024/04/17 06:32:12;;;;;;;7.85;3.58;;;;;;;;;;5415358;26;20006;-76
2024/04/17 06:34:38;;;;;;;8.82;2.83;;;;;;;;;;5416999;26;20431;-76
2024/04/17 06:37:04;;;;;;;6.68;3.25;;;;;;;;;;5414049;26;19996;-77
2024/04/17 06:39:30;;;;;;;5.72;2.65;;;;;;;;;;5413693;26;20000;-76
2024/04/17 06:41:57;;;;;;;4.72;2.72;;;;;;;;;;5413690;26;20000;-77
2024/04/17 06:44:23;;;;;;;7.18;1.80;;;;;;;;;;5413136;26;20072;-77
2024/04/17 06:46:49;;;;;;;4.82;1.90;;;;;;;;;;5415703;26;20014;-77
2024/04/17 06:49:15;;;;;;;8.80;3.15;;;;;;;;;;5415716;26;19999;-77
2024/04/17 06:51:41;;;;;;;6.03;2.58;;;;;;;;;;5416276;26;20006;-78
2024/04/17 06:54:08;;;;;;;5.40;2.22;;;;;;;;;;5415033;26;19996;-77
2024/04/17 06:56:34;;;;;;;6.57;2.78;;;;;;;;;;5415654;26;20078;-76
2024/04/17 06:59:00;;;;;;;6.78;1.80;;;;;;;;;;5415924;26;20414;-76
2024/04/17 07:01:28;;;;;;;5.65;2.00;;;;;;;;;;5413407;26;20343;-77
2024/04/17 07:03:55;;;;;;;9.10;1.98;;;;;;;;;;5413575;26;19991;-77
2024/04/17 07:06:21;;;;;;;3.88;2.85;;;;;;;;;;5413283;26;20048;-77
2024/04/17 07:08:48;;;;;;;6.07;1.58;;;;;;;;;;5415232;26;20273;-76
2024/04/17 07:11:14;;;;;;;8.95;1.92;;;;;;;;;;5415582;26;20293;-78
2024/04/17 07:13:40;;;;;;;6.40;1.95;;;;;;;;;;5414785;26;20006;-76
2024/04/17 07:16:07;;;;;;;6.75;2.15;;;;;;;;;;5414888;26;20015;-75
2024/04/17 07:18:33;;;;;;;3.53;1.75;;;;;;;;;;5415124;26;20099;-76
2024/04/17 07:21:04;;;;;;;6.65;2.15;;;;;;;;;;5413204;26;19995;-76
2024/04/17 07:23:31;;;;;;;7.88;1.88;;;;;;;;;;5415736;26;20072;-78
2024/04/17 07:25:57;;;;;;;3.28;1.38;;;;;;;;;;5413573;26;19999;-76
2024/04/17 07:28:24;;;;;;;4.28;1.65;;;;;;;;;;5414795;26;20131;-76
2024/04/17 07:30:50;;;;;;;3.22;1.90;;;;;;;;;;5412987;26;20262;-77
2024/04/17 07:33:16;;;;;;;6.97;1.50;;;;;;;;;;5413936;26;20069;-76
2024/04/17 07:35:42;;;;;;;9.70;1.95;;;;;;;;;;5414236;26;19992;-77
2024/04/17 07:38:09;;;;;;;10.80;1.88;;;;;;;;;;5413119;26;19995;-77
2024/04/17 07:40:35;;;;;;;10.13;1.70;;;;;;;;;;5414706;26;20014;-76
2024/04/17 07:43:01;;;;;;;7.40;2.05;;;;;;;;;;5417182;26;19996;-77
2024/04/17 07:45:27;;;;;;;5.63;2.10;;;;;;;;;;5415767;26;20006;-76
2024/04/17 07:47:53;;;;;;;7.57;1.80;;;;;;;;;;5414413;26;19996;-77
2024/04/17 07:50:20;;;;;;;6.90;2.08;;;;;;;;;;5415211;26;19992;-76
2024/04/17 07:52:46;;;;;;;5.15;1.42;;;;;;;;;;5414268;26;20007;-76
2024/04/17 07:55:12;;;;;;;3.92;1.40;;;;;;;;;;5416485;26;19996;-76
2024/04/17 07:57:38;;;;;;;5.20;1.88;;;;;;;;;;5418676;26;19999;-75
2024/04/17 08:00:04;;;;;;;4.13;1.52;;;;;;;;;;5417878;26;19999;-77
2024/04/17 08:02:31;;;;;;;4.57;1.58;;;;;;;;;;5413706;26;20457;-77
2024/04/17 08:04:57;;;;;;;6.88;1.98;;;;;;;;;;5415848;26;19999;-76
2024/04/17 08:07:23;;;;;;;6.65;1.77;;;;;;;;;;5416245;26;20024;-77
2024/04/17 08:09:49;;;;;;;3.75;1.38;;;;;;;;;;5415564;26;19999;-76
2024/04/17 08:12:15;;;;;;;3.42;1.70;;;;;;;;;;5413410;26;20006;-76
2024/04/17 08:14:41;;;;;;;4.60;2.05;;;;;;;;;;5414304;26;20002;-76
2024/04/17 08:17:07;;;;;;;9.13;1.40;;;;;;;;;;5416084;26;20049;-78
2024/04/17 08:19:35;;;;;;;4.80;1.65;;;;;;;;;;5418355;26;19995;-76
2024/04/17 08:22:01;;;;;;;11.32;2.35;;;;;;;;;;5418867;26;20006;-77
2024/04/17 08:24:30;;;;;;;4.88;1.77;;;;;;;;;;5420182;26;20003;-77
2024/04/17 08:26:56;;;;;;;5.30;1.58;;;;;;;;;;5421242;26;20000;-76
2024/04/17 08:29:25;;;;;;;3.83;1.80;;;;;;;;;;5422286;26;20465;-76
2024/04/17 08:31:51;;;;;;;5.43;1.50;;;;;;;;;;5422182;26;20007;-76
2024/04/17 08:34:17;;;;;;;3.88;1.70;;;;;;;;;;5421443;26;20406;-76
2024/04/17 08:36:46;;;;;;;7.63;1.88;;;;;;;;;;5421072;26;20002;-76
2024/04/17 08:39:12;;;;;;;3.78;1.85;;;;;;;;;;5421283;26;20027;-75
2024/04/17 08:41:47;;;;;;;3.13;1.63;;;;;;;;;;5419840;26;20119;-76
2024/04/17 08:44:16;;;;;;;4.40;1.10;;;;;;;;;;5418327;26;20007;-75
2024/04/17 08:46:43;;;;;;;6.30;2.00;;;;;;;;;;5419510;26;20014;-76
2024/04/17 08:49:09;;;;;;;7.22;1.83;;;;;;;;;;5416975;26;20015;-75
2024/04/17 08:51:35;;;;;;;6.75;2.03;;;;;;;;;;5414396;26;19996;-75
2024/04/17 08:54:03;;;;;;;5.20;1.80;;;;;;;;;;5413906;26;20014;-76
2024/04/17 08:56:30;;;;;;;2.65;1.58;;;;;;;;;;5416053;26;20012;-75
2024/04/17 08:58:56;;;;;;;3.80;1.88;;;;;;;;;;5417408;26;19999;-76
2024/04/17 09:01:24;;;;;;;8.98;1.77;;;;;;;;;;5418886;26;20010;-76
2024/04/17 09:03:51;;;;;;;6.60;2.13;;;;;;;;;;5414855;26;19996;-76
2024/04/17 09:06:20;;;;;;;7.65;2.10;;;;;;;;;;5396946;26;19999;-76
2024/04/17 09:08:46;;;;;;;3.47;1.90;;;;;;;;;;5415802;26;20035;-75
2024/04/17 09:11:12;;;;;;;4.38;1.35;;;;;;;;;;5413992;26;20096;-76
2024/04/17 09:13:38;;;;;;;2.85;1.42;;;;;;;;;;5413769;26;20007;-75
2024/04/17 09:16:04;;;;;;;4.38;1.30;;;;;;;;;;5415974;26;20000;-76
2024/04/17 09:18:30;;;;;;;3.35;1.15;;;;;;;;;;5413220;26;20000;-75
2024/04/17 09:20:56;;;;;;;3.42;1.40;;;;;;;;;;5397064;26;20100;-78
2024/04/17 09:23:22;;;;;;;8.25;4.25;;;;;;;;;;5385842;26;20015;-77
2024/04/17 09:25:48;;;;;;;6.22;2.50;;;;;;;;;;5400241;26;20010;-76
2024/04/17 09:28:15;;;;;;;3.17;1.40;;;;;;;;;;5408080;26;20019;-76
2024/04/17 09:30:44;;;;;;;6.95;1.65;;;;;;;;;;5419035;26;20111;-76
2024/04/17 09:33:10;;;;;;;4.00;1.80;;;;;;;;;;5415361;26;20019;-75
2024/04/17 09:35:38;;;;;;;12.02;1.92;;;;;;;;;;5422387;26;20032;-75
2024/04/17 09:38:08;;;;;;;5.93;1.10;;;;;;;;;;5416579;26;20013;-76
2024/04/17 09:40:34;;;;;;;3.40;1.17;;;;;;;;;;5414337;26;20094;-76
2024/04/17 09:43:08;;;;;;;4.57;1.25;;;;;;;;;;5413971;26;20416;-76
2024/04/17 09:45:35;;;;;;;3.75;0.73;;;;;;;;;;5416266;26;20004;-75
2024/04/17 09:48:01;;;;;;;2.70;1.05;;;;;;;;;;5413799;26;20344;-76
2024/04/17 09:50:27;;;;;;;5.75;1.70;;;;;;;;;;5414194;26;20000;-76
2024/04/17 09:52:56;;;;;;;7.22;0.98;;;;;;;;;;5414787;26;20000;-75
2024/04/17 09:55:22;;;;;;;2.75;1.00;;;;;;;;;;5412528;26;20000;-74
2024/04/17 09:57:50;;;;;;;2.90;0.95;;;;;;;;;;5414246;26;20003;-75
2024/04/17 10:00:16;;;;;;;3.15;1.20;;;;;;;;;;5414272;26;20036;-76
2024/04/17 10:02:44;;;;;;;3.33;0.98;;;;;;;;;;5413792;26;20015;-76
2024/04/17 10:05:13;;;;;;;3.45;0.65;;;;;;;;;;5413843;26;20002;-75
2024/04/17 10:07:41;;;;;;;4.25;0.85;;;;;;;;;;5414716;26;20000;-75
2024/04/17 10:10:07;;;;;;;2.45;0.77;;;;;;;;;;5416853;26;20032;-75
2024/04/17 10:12:33;;;;;;;5.43;0.77;;;;;;;;;;5414398;26;19999;-76
2024/04/17 10:15:00;;;;;;;6.20;1.20;;;;;;;;;;5412820;26;20456;-75
2024/04/17 10:17:26;;;;;;;3.53;0.77;;;;;;;;;;5413830;26;20007;-77
2024/04/17 10:19:52;;;;;;;1.58;0.60;;;;;;;;;;5414301;26;20418;-76
2024/04/17 10:22:18;;;;;;;8.65;0.65;;;;;;;;;;5410220;26;20003;-75
2024/04/17 10:24:44;;;;;;;2.35;1.45;;;;;;;;;;5412580;26;20414;-77
2024/04/17 10:27:14;;;;;;;2.72;0.60;;;;;;;;;;5411021;26;20000;-75
2024/04/17 10:29:42;;;;;;;2.15;0.40;;;;;;;;;;5414092;26;20014;-75
2024/04/17 10:32:12;;;;;;;4.07;0.88;;;;;;;;;;5411862;26;20004;-75
2024/04/17 10:34:54;;;;;;;1.77;0.52;;;;;;;;;;5413269;26;20012;-77
2024/04/17 10:37:22;;;;;;;;;;;;;;;;;;5413796;26;20003;-75
2024/04/17 10:39:48;;;;;;;2.60;0.93;;;;;;;;;;5411227;26;20387;-75
2024/04/17 10:42:16;;;;;;;2.75;0.63;;;;;;;;;;5412581;26;20080;-75
2024/04/17 10:44:52;;;;;;;3.13;0.95;;;;;;;;;;5413605;26;20135;-76
2024/04/17 10:47:20;;;;;;;1.70;0.65;;;;;;;;;;5413712;26;20006;-75
2024/04/17 10:49:54;;;;;;;4.18;0.73;;;;;;;;;;5415068;26;20337;-75
2024/04/17 10:52:20;;;;;;;3.42;0.85;;;;;;;;;;5415720;26;19999;-75
2024/04/17 10:54:46;;;;;;;2.72;0.80;;;;;;;;;;5414573;26;20000;-75
2024/04/17 10:57:12;;;;;;;3.45;1.10;;;;;;;;;;5414296;26;20005;-74
2024/04/17 10:59:44;;;;;;;1.85;1.00;;;;;;;;;;5413798;26;20022;-75
2024/04/17 11:02:10;;;;;;;3.90;1.15;;;;;;;;;;5413329;26;19999;-75
2024/04/17 11:04:37;;;;;;;4.50;1.45;;;;;;;;;;5412704;26;20014;-75
2024/04/17 11:07:03;;;;;;;2.58;0.93;;;;;;;;;;5425781;26;20011;-75
2024/04/17 11:09:29;;;;;;;3.03;0.88;;;;;;;;;;5413612;26;20367;-75
2024/04/17 11:11:55;;;;;;;1.67;0.77;;;;;;;;;;5412306;26;20003;-75
2024/04/17 11:14:21;;;;;;;3.97;1.40;;;;;;;;;;5413993;26;20014;-75
2024/04/17 11:16:47;;;;;;;3.60;1.00;;;;;;;;;;5414065;26;19999;-75
2024/04/17 11:19:14;;;;;;;3.88;1.55;;;;;;;;;;5414116;26;20011;-75
2024/04/17 11:21:40;;;;;;;4.90;1.70;;;;;;;;;;5414390;26;20076;-76
2024/04/17 11:24:06;;;;;;;2.40;1.17;;;;;;;;;;5413995;26;20019;-75
2024/04/17 11:26:32;;;;;;;2.25;0.95;;;;;;;;;;5413519;26;19999;-76
2024/04/17 11:28:58;;;;;;;4.55;1.30;;;;;;;;;;5413345;26;20436;-75
2024/04/17 11:31:24;;;;;;;2.33;1.00;;;;;;;;;;5413403;26;20082;-74
2024/04/17 11:33:50;;;;;;;4.63;1.58;;;;;;;;;;5410971;26;20330;-75
2024/04/17 11:36:17;;;;;;;3.03;1.23;;;;;;;;;;5413814;26;19996;-76
2024/04/17 11:38:46;;;;;;;5.78;1.50;;;;;;;;;;5413845;26;20015;-75
2024/04/17 11:41:16;;;;;;;2.72;1.25;;;;;;;;;;5412548;26;19999;-76
2024/04/17 11:43:43;;;;;;;2.92;1.52;;;;;;;;;;5410834;26;20000;-76
2024/04/17 11:46:10;;;;;;;2.72;1.25;;;;;;;;;;5412051;26;20353;-75
2024/04/17 11:48:36;;;;;;;5.28;1.30;;;;;;;;;;5412370;26;20596;-76
2024/04/17 11:51:02;;;;;;;4.90;1.58;;;;;;;;;;5412886;26;20429;-75
2024/04/17 11:53:28;;;;;;;5.20;1.33;;;;;;;;;;5412183;26;20080;-76
2024/04/17 11:55:54;;;;;;;3.20;1.55;;;;;;;;;;5410660;26;20092;-74
2024/04/17 11:58:21;;;;;;;5.43;1.90;;;;;;;;;;5412487;26;20003;-76
2024/04/17 12:00:47;;;;;;;5.80;1.40;;;;;;;;;;5412249;26;20196;-76
2024/04/17 12:03:13;;;;;;;2.72;1.80;;;;;;;;;;5413723;26;20088;-75
2024/04/17 12:05:39;;;;;;;4.90;1.70;;;;;;;;;;5412902;26;20133;-75
2024/04/17 12:08:05;;;;;;;2.63;1.35;;;;;;;;;;5413302;26;20300;-75
2024/04/17 12:10:32;;;;;;;2.47;1.25;;;;;;;;;;5413666;26;20015;-74
2024/04/17 12:12:58;;;;;;;4.45;1.80;;;;;;;;;;5410381;26;20011;-75
2024/04/17 12:15:24;;;;;;;4.18;1.38;;;;;;;;;;5412945;26;20000;-77
2024/04/17 12:17:50;;;;;;;3.15;1.25;;;;;;;;;;5413299;26;20363;-76
2024/04/17 12:20:16;;;;;;;2.22;1.20;;;;;;;;;;5412334;26;20075;-76
2024/04/17 12:22:43;;;;;;;6.25;1.55;;;;;;;;;;5412533;26;19991;-76
2024/04/17 12:27:54;;;;;;;4.93;1.38;;;;;;;;;;5412759;26;20060;-76
2024/04/17 12:30:20;;;;;;;3.88;1.95;;;;;;;;;;5412431;26;20530;-76
2024/04/17 12:32:46;;;;;;;9.73;2.35;;;;;;;;;;5395468;26;20296;-75
2024/04/17 12:35:13;;;;;;;7.95;3.20;;;;;;;;;;5395178;26;20011;-75
2024/04/17 12:37:39;;;;;;;6.05;2.78;;;;;;;;;;5395136;26;20004;-76
2024/04/17 12:40:06;;;;;;;5.82;3.40;;;;;;;;;;5392213;26;20004;-77
2024/04/17 12:42:32;;;;;;;8.80;2.83;;;;;;;;;;5412277;26;20011;-77
2024/04/17 12:44:58;;;;;;;6.35;3.55;;;;;;;;;;5412957;26;20011;-75
2024/04/17 12:47:24;;;;;;;3.03;1.80;;;;;;;;;;5413643;26;20000;-76
2024/04/17 12:49:50;;;;;;;7.05;2.72;;;;;;;;;;5412507;26;20003;-75
2024/04/17 12:52:16;;;;;;;5.68;2.42;;;;;;;;;;5403343;26;20313;-76
2024/04/17 12:54:42;;;;;;;9.60;2.65;;;;;;;;;;5408917;26;20119;-76
2024/04/17 12:57:08;;;;;;;6.63;2.65;;;;;;;;;;5410606;26;20126;-76
2024/04/17 12:59:34;;;;;;;4.47;2.60;;;;;;;;;;5441161;26;19995;-76
2024/04/17 13:02:01;;;;;;;2.38;1.45;;;;;;;;;;5430139;26;20014;-75
2024/04/17 13:04:27;;;;;;;5.25;1.45;;;;;;;;;;5410528;26;20091;-76
2024/04/17 13:06:53;;;;;;;4.53;1.75;;;;;;;;;;5410243;26;20000;-75
2024/04/17 13:09:19;;;;;;;18.65;1.98;;;;;;;;;;5410891;26;20422;-75
2024/04/17 13:11:46;;;;;;;4.60;1.50;;;;;;;;;;5409335;26;20003;-75
2024/04/17 13:14:12;;;;;;;3.25;1.48;;;;;;;;;;5420006;26;20004;-75
2024/04/17 13:16:38;;;;;;;2.15;1.10;;;;;;;;;;5401086;26;19995;-75
2024/04/17 13:19:04;;;;;;;2.53;1.20;;;;;;;;;;5396376;26;20318;-75
2024/04/17 13:21:30;;;;;;;5.07;1.65;;;;;;;;;;5398789;26;20003;-76
2024/04/17 13:23:56;;;;;;;1.55;0.95;;;;;;;;;;5394348;26;20004;-76
2024/04/17 13:26:22;;;;;;;3.83;1.75;;;;;;;;;;5394951;26;20018;-76
2024/04/17 13:28:48;;;;;;;1.10;0.32;;;;;;;;;;5395397;26;20007;-75
2024/04/17 13:31:14;;;;;;;0.40;0.35;;;;;;;;;;5392943;26;20122;-75
2024/04/17 13:33:40;;;;;;;0.60;0.30;;;;;;;;;;5394911;26;20014;-76
2024/04/17 13:36:10;;;;;;;1.83;0.47;;;;;;;;;;5387124;26;20098;-75
2024/04/17 13:38:36;;;;;;;0.73;0.25;;;;;;;;;;5377939;26;20000;-78
2024/04/17 13:41:04;;;;;;;0.70;0.40;;;;;;;;;;5378100;26;20169;-77
2024/04/17 13:43:30;;;;;;;1.33;0.28;;;;;;;;;;5377438;26;20044;-76
2024/04/17 13:45:57;;;;;;;3.40;0.47;;;;;;;;;;5380377;26;20703;-76
2024/04/17 13:48:23;;;;;;;0.65;0.20;;;;;;;;;;5412106;26;20014;-76
2024/04/17 13:50:58;;;;;;;0.40;0.30;;;;;;;;;;5413300;26;20135;-75
2024/04/17 13:53:24;;;;;;;2.78;0.70;;;;;;;;;;5413010;26;20004;-76
2024/04/17 13:55:50;;;;;;;0.57;0.38;;;;;;;;;;5413449;26;20015;-75
2024/04/17 13:58:16;;;;;;;0.45;0.30;;;;;;;;;;5409312;26;20004;-76
2024/04/17 14:00:42;;;;;;;0.40;0.30;;;;;;;;;;5394538;26;20453;-76
2024/04/17 14:03:09;;;;;;;1.83;0.40;;;;;;;;;;5400075;26;20004;-77
2024/04/17 14:05:35;;;;;;;2.90;0.40;;;;;;;;;;5399764;26;20025;-76
2024/04/17 14:08:02;;;;;;;1.45;0.90;;;;;;;;;;5417396;26;19999;-75
2024/04/17 14:10:29;;;;;;;0.52;0.32;;;;;;;;;;5419494;26;20039;-77
2024/04/17 14:12:55;;;;;;;1.35;0.38;;;;;;;;;;5410718;26;20007;-74
2024/04/17 14:15:21;;;;;;;2.72;0.50;;;;;;;;;;5411183;26;20148;-75
2024/04/17 14:17:47;;;;;;;2.00;0.70;;;;;;;;;;5413571;26;20014;-75
2024/04/17 14:20:13;;;;;;;1.90;0.70;;;;;;;;;;5414239;26;20073;-76
2024/04/17 14:22:39;;;;;;;2.10;1.00;;;;;;;;;;5411038;26;20000;-75
2024/04/17 14:25:05;;;;;;;2.97;0.40;;;;;;;;;;5412688;26;20000;-75
2024/04/17 14:27:31;;;;;;;0.47;0.40;;;;;;;;;;5407863;26;20004;-77
2024/04/17 14:29:57;;;;;;;6.55;0.50;;;;;;;;;;5399739;26;20014;-76
2024/04/17 14:32:23;;;;;;;0.52;0.28;;;;;;;;;;5411408;26;20335;-76
2024/04/17 14:34:49;;;;;;;4.18;2.28;;;;;;;;;;5428510;26;20055;-76
2024/04/17 14:37:15;;;;;;;1.40;0.65;;;;;;;;;;5437145;26;19999;-76
2024/04/17 14:39:41;;;;;;;1.67;0.68;;;;;;;;;;5413656;26;20014;-77
2024/04/17 14:42:07;;;;;;;3.75;0.50;;;;;;;;;;5413485;26;20380;-75